sensor_id;sensor_type;location;lat;lon;timestamp;P1;durP1;ratioP1;P2;durP2;ratioP2
59530;SDS011;45349;48.692;8.186;2023-03-01T00:01:14;21.50;;;11.40;;
59530;SDS011;45349;48.692;8.186;2023-03-01T00:03:41;28.03;;;11.60;;
59530;SDS011;45349;48.692;8.186;2023-03-01T00:06:10;26.50;;;11.73;;
59530;SDS011;45349;48.692;8.186;2023-03-01T00:08:37;24.90;;;11.50;;
59530;SDS011;45349;48.692;8.186;2023-03-01T00:11:04;25.63;;;11.93;;
59530;SDS011;45349;48.692;8.186;2023-03-01T00:13:33;22.67;;;11.23;;
59530;SDS011;45349;48.692;8.186;2023-03-01T00:16:01;22.73;;;12.10;;
59530;SDS011;45349;48.692;8.186;2023-03-01T00:18:28;24.90;;;11.33;;
59530;SDS011;45349;48.692;8.186;2023-03-01T00:20:55;23.93;;;11.77;;
59530;SDS011;45349;48.692;8.186;2023-03-01T00:23:23;21.03;;;11.00;;
59530;SDS011;45349;48.692;8.186;2023-03-01T00:25:51;20.63;;;10.40;;
59530;SDS011;45349;48.692;8.186;2023-03-01T00:28:20;18.57;;;9.53;;
59530;SDS011;45349;48.692;8.186;2023-03-01T00:30:47;22.33;;;11.50;;
59530;SDS011;45349;48.692;8.186;2023-03-01T00:33:13;21.00;;;10.37;;
59530;SDS011;45349;48.692;8.186;2023-03-01T00:35:40;23.93;;;11.13;;
59530;SDS011;45349;48.692;8.186;2023-03-01T00:38:06;25.27;;;11.13;;
59530;SDS011;45349;48.692;8.186;2023-03-01T00:40:35;18.47;;;8.23;;
59530;SDS011;45349;48.692;8.186;2023-03-01T00:43:02;25.70;;;11.07;;
59530;SDS011;45349;48.692;8.186;2023-03-01T00:45:29;24.20;;;12.37;;
59530;SDS011;45349;48.692;8.186;2023-03-01T00:47:57;24.03;;;10.97;;
59530;SDS011;45349;48.692;8.186;2023-03-01T00:50:24;21.43;;;11.10;;
59530;SDS011;45349;48.692;8.186;2023-03-01T00:52:52;22.43;;;11.73;;
59530;SDS011;45349;48.692;8.186;2023-03-01T00:55:19;22.17;;;11.33;;
59530;SDS011;45349;48.692;8.186;2023-03-01T00:57:47;21.87;;;11.93;;
59530;SDS011;45349;48.692;8.186;2023-03-01T01:00:14;21.00;;;11.47;;
59530;SDS011;45349;48.692;8.186;2023-03-01T01:02:41;20.60;;;11.00;;
59530;SDS011;45349;48.692;8.186;2023-03-01T01:05:08;21.50;;;11.00;;
59530;SDS011;45349;48.692;8.186;2023-03-01T01:07:35;21.43;;;11.60;;
59530;SDS011;45349;48.692;8.186;2023-03-01T01:10:02;25.90;;;13.23;;
59530;SDS011;45349;48.692;8.186;2023-03-01T01:12:29;24.07;;;12.00;;
59530;SDS011;45349;48.692;8.186;2023-03-01T01:14:57;21.30;;;11.17;;
59530;SDS011;45349;48.692;8.186;2023-03-01T01:17:23;21.57;;;11.97;;
59530;SDS011;45349;48.692;8.186;2023-03-01T01:19:50;23.77;;;12.20;;
59530;SDS011;45349;48.692;8.186;2023-03-01T01:22:17;20.60;;;11.17;;
59530;SDS011;45349;48.692;8.186;2023-03-01T01:24:43;19.73;;;10.67;;
59530;SDS011;45349;48.692;8.186;2023-03-01T01:27:10;20.80;;;10.60;;
59530;SDS011;45349;48.692;8.186;2023-03-01T01:29:37;22.53;;;11.67;;
59530;SDS011;45349;48.692;8.186;2023-03-01T01:32:05;24.00;;;11.53;;
59530;SDS011;45349;48.692;8.186;2023-03-01T01:34:32;22.30;;;11.80;;
59530;SDS011;45349;48.692;8.186;2023-03-01T01:36:58;22.20;;;11.13;;
59530;SDS011;45349;48.692;8.186;2023-03-01T01:39:27;25.20;;;11.30;;
59530;SDS011;45349;48.692;8.186;2023-03-01T01:41:54;26.87;;;15.43;;
59530;SDS011;45349;48.692;8.186;2023-03-01T01:44:21;24.00;;;12.13;;
59530;SDS011;45349;48.692;8.186;2023-03-01T01:46:50;22.63;;;12.40;;
59530;SDS011;45349;48.692;8.186;2023-03-01T01:49:26;23.27;;;10.13;;
59530;SDS011;45349;48.692;8.186;2023-03-01T01:51:59;26.23;;;12.17;;
59530;SDS011;45349;48.692;8.186;2023-03-01T01:54:31;23.17;;;12.40;;
59530;SDS011;45349;48.692;8.186;2023-03-01T01:57:06;21.67;;;11.80;;
59530;SDS011;45349;48.692;8.186;2023-03-01T01:59:35;26.80;;;12.47;;
59530;SDS011;45349;48.692;8.186;2023-03-01T02:02:03;23.50;;;12.80;;
59530;SDS011;45349;48.692;8.186;2023-03-01T02:04:32;20.77;;;11.57;;
59530;SDS011;45349;48.692;8.186;2023-03-01T02:07:00;24.87;;;12.80;;
59530;SDS011;45349;48.692;8.186;2023-03-01T02:09:31;23.83;;;11.87;;
59530;SDS011;45349;48.692;8.186;2023-03-01T02:12:00;22.60;;;12.00;;
59530;SDS011;45349;48.692;8.186;2023-03-01T02:14:28;26.90;;;12.57;;
59530;SDS011;45349;48.692;8.186;2023-03-01T02:16:54;24.30;;;12.27;;
59530;SDS011;45349;48.692;8.186;2023-03-01T02:19:25;24.60;;;12.33;;
59530;SDS011;45349;48.692;8.186;2023-03-01T02:22:03;23.80;;;11.83;;
59530;SDS011;45349;48.692;8.186;2023-03-01T02:24:39;25.53;;;12.53;;
59530;SDS011;45349;48.692;8.186;2023-03-01T02:27:16;23.37;;;11.90;;
59530;SDS011;45349;48.692;8.186;2023-03-01T02:29:49;23.77;;;11.80;;
59530;SDS011;45349;48.692;8.186;2023-03-01T02:32:15;26.40;;;12.63;;
59530;SDS011;45349;48.692;8.186;2023-03-01T02:34:50;26.07;;;13.17;;
59530;SDS011;45349;48.692;8.186;2023-03-01T02:37:18;27.87;;;13.90;;
59530;SDS011;45349;48.692;8.186;2023-03-01T02:39:50;24.73;;;13.00;;
59530;SDS011;45349;48.692;8.186;2023-03-01T02:42:23;26.67;;;12.80;;
59530;SDS011;45349;48.692;8.186;2023-03-01T02:44:54;24.23;;;13.13;;
59530;SDS011;45349;48.692;8.186;2023-03-01T02:47:21;25.30;;;12.47;;
59530;SDS011;45349;48.692;8.186;2023-03-01T02:49:48;27.73;;;13.23;;
59530;SDS011;45349;48.692;8.186;2023-03-01T02:52:18;29.77;;;14.20;;
59530;SDS011;45349;48.692;8.186;2023-03-01T02:54:58;25.17;;;11.67;;
59530;SDS011;45349;48.692;8.186;2023-03-01T02:57:27;20.50;;;8.07;;
59530;SDS011;45349;48.692;8.186;2023-03-01T02:59:57;28.10;;;13.03;;
59530;SDS011;45349;48.692;8.186;2023-03-01T03:02:32;23.33;;;12.97;;
59530;SDS011;45349;48.692;8.186;2023-03-01T03:05:16;25.63;;;12.70;;
59530;SDS011;45349;48.692;8.186;2023-03-01T03:07:46;25.47;;;13.83;;
59530;SDS011;45349;48.692;8.186;2023-03-01T03:10:15;29.50;;;13.97;;
59530;SDS011;45349;48.692;8.186;2023-03-01T03:12:44;29.60;;;13.60;;
59530;SDS011;45349;48.692;8.186;2023-03-01T03:15:17;27.67;;;13.57;;
59530;SDS011;45349;48.692;8.186;2023-03-01T03:17:45;26.70;;;13.07;;
59530;SDS011;45349;48.692;8.186;2023-03-01T03:20:13;25.33;;;12.97;;
59530;SDS011;45349;48.692;8.186;2023-03-01T03:22:44;26.53;;;13.37;;
59530;SDS011;45349;48.692;8.186;2023-03-01T03:25:11;25.43;;;13.63;;
59530;SDS011;45349;48.692;8.186;2023-03-01T03:27:38;24.20;;;13.20;;
59530;SDS011;45349;48.692;8.186;2023-03-01T03:30:07;26.03;;;13.77;;
59530;SDS011;45349;48.692;8.186;2023-03-01T03:32:38;28.37;;;13.90;;
59530;SDS011;45349;48.692;8.186;2023-03-01T03:35:06;27.37;;;12.83;;
59530;SDS011;45349;48.692;8.186;2023-03-01T03:37:35;32.70;;;13.77;;
59530;SDS011;45349;48.692;8.186;2023-03-01T03:40:20;24.73;;;12.87;;
59530;SDS011;45349;48.692;8.186;2023-03-01T03:42:46;27.50;;;14.00;;
59530;SDS011;45349;48.692;8.186;2023-03-01T03:45:13;24.27;;;12.60;;
59530;SDS011;45349;48.692;8.186;2023-03-01T03:47:41;25.83;;;13.97;;
59530;SDS011;45349;48.692;8.186;2023-03-01T03:50:08;29.73;;;14.10;;
59530;SDS011;45349;48.692;8.186;2023-03-01T03:52:36;28.60;;;14.27;;
59530;SDS011;45349;48.692;8.186;2023-03-01T03:55:03;24.43;;;13.33;;
59530;SDS011;45349;48.692;8.186;2023-03-01T03:57:34;30.60;;;13.97;;
59530;SDS011;45349;48.692;8.186;2023-03-01T04:00:01;30.43;;;13.80;;
59530;SDS011;45349;48.692;8.186;2023-03-01T04:02:37;27.87;;;14.17;;
59530;SDS011;45349;48.692;8.186;2023-03-01T04:05:06;30.97;;;13.80;;
59530;SDS011;45349;48.692;8.186;2023-03-01T04:07:34;29.40;;;14.00;;
59530;SDS011;45349;48.692;8.186;2023-03-01T04:10:00;29.97;;;14.20;;
59530;SDS011;45349;48.692;8.186;2023-03-01T04:12:27;27.00;;;13.73;;
59530;SDS011;45349;48.692;8.186;2023-03-01T04:14:54;27.53;;;14.93;;
59530;SDS011;45349;48.692;8.186;2023-03-01T04:17:20;29.90;;;14.23;;
59530;SDS011;45349;48.692;8.186;2023-03-01T04:19:47;29.97;;;14.60;;
59530;SDS011;45349;48.692;8.186;2023-03-01T04:22:15;28.07;;;14.13;;
59530;SDS011;45349;48.692;8.186;2023-03-01T04:24:42;25.57;;;13.17;;
59530;SDS011;45349;48.692;8.186;2023-03-01T04:27:09;33.53;;;14.17;;
59530;SDS011;45349;48.692;8.186;2023-03-01T04:29:36;33.50;;;15.13;;
59530;SDS011;45349;48.692;8.186;2023-03-01T04:32:02;48.70;;;18.50;;
59530;SDS011;45349;48.692;8.186;2023-03-01T04:34:30;33.73;;;15.33;;
59530;SDS011;45349;48.692;8.186;2023-03-01T04:36:56;58.63;;;35.17;;
59530;SDS011;45349;48.692;8.186;2023-03-01T04:39:24;31.53;;;15.87;;
59530;SDS011;45349;48.692;8.186;2023-03-01T04:41:51;35.80;;;22.90;;
59530;SDS011;45349;48.692;8.186;2023-03-01T04:44:17;33.30;;;17.20;;
59530;SDS011;45349;48.692;8.186;2023-03-01T04:46:44;29.30;;;16.00;;
59530;SDS011;45349;48.692;8.186;2023-03-01T04:49:10;33.43;;;15.70;;
59530;SDS011;45349;48.692;8.186;2023-03-01T04:51:38;32.50;;;15.77;;
59530;SDS011;45349;48.692;8.186;2023-03-01T04:54:04;29.97;;;14.57;;
59530;SDS011;45349;48.692;8.186;2023-03-01T04:56:35;40.70;;;20.97;;
59530;SDS011;45349;48.692;8.186;2023-03-01T04:59:01;33.27;;;15.67;;
59530;SDS011;45349;48.692;8.186;2023-03-01T05:01:30;28.17;;;14.90;;
59530;SDS011;45349;48.692;8.186;2023-03-01T05:03:57;33.73;;;17.90;;
59530;SDS011;45349;48.692;8.186;2023-03-01T05:06:28;38.00;;;20.67;;
59530;SDS011;45349;48.692;8.186;2023-03-01T05:08:54;32.73;;;16.70;;
59530;SDS011;45349;48.692;8.186;2023-03-01T05:11:21;31.40;;;15.40;;
59530;SDS011;45349;48.692;8.186;2023-03-01T05:13:49;31.20;;;15.37;;
59530;SDS011;45349;48.692;8.186;2023-03-01T05:16:19;36.27;;;17.83;;
59530;SDS011;45349;48.692;8.186;2023-03-01T05:18:46;39.60;;;19.20;;
59530;SDS011;45349;48.692;8.186;2023-03-01T05:21:16;39.03;;;19.77;;
59530;SDS011;45349;48.692;8.186;2023-03-01T05:23:43;36.53;;;17.30;;
59530;SDS011;45349;48.692;8.186;2023-03-01T05:26:10;31.67;;;14.97;;
59530;SDS011;45349;48.692;8.186;2023-03-01T05:28:37;38.77;;;16.50;;
59530;SDS011;45349;48.692;8.186;2023-03-01T05:31:06;33.13;;;16.33;;
59530;SDS011;45349;48.692;8.186;2023-03-01T05:33:35;29.67;;;16.63;;
59530;SDS011;45349;48.692;8.186;2023-03-01T05:36:02;32.30;;;15.30;;
59530;SDS011;45349;48.692;8.186;2023-03-01T05:38:29;35.77;;;15.80;;
59530;SDS011;45349;48.692;8.186;2023-03-01T05:40:56;29.50;;;14.47;;
59530;SDS011;45349;48.692;8.186;2023-03-01T05:43:22;33.57;;;14.87;;
59530;SDS011;45349;48.692;8.186;2023-03-01T05:45:49;30.50;;;15.43;;
59530;SDS011;45349;48.692;8.186;2023-03-01T05:48:17;29.73;;;14.80;;
59530;SDS011;45349;48.692;8.186;2023-03-01T05:50:44;28.10;;;14.20;;
59530;SDS011;45349;48.692;8.186;2023-03-01T05:53:12;31.27;;;14.33;;
59530;SDS011;45349;48.692;8.186;2023-03-01T05:55:42;38.27;;;17.93;;
59530;SDS011;45349;48.692;8.186;2023-03-01T05:58:12;37.00;;;17.03;;
59530;SDS011;45349;48.692;8.186;2023-03-01T06:00:40;36.20;;;17.23;;
59530;SDS011;45349;48.692;8.186;2023-03-01T06:03:09;30.90;;;13.90;;
59530;SDS011;45349;48.692;8.186;2023-03-01T06:05:38;30.87;;;14.53;;
59530;SDS011;45349;48.692;8.186;2023-03-01T06:08:06;36.13;;;18.57;;
59530;SDS011;45349;48.692;8.186;2023-03-01T06:10:33;32.40;;;15.70;;
59530;SDS011;45349;48.692;8.186;2023-03-01T06:12:59;30.33;;;14.03;;
59530;SDS011;45349;48.692;8.186;2023-03-01T06:15:26;29.00;;;14.40;;
59530;SDS011;45349;48.692;8.186;2023-03-01T06:17:53;30.13;;;14.70;;
59530;SDS011;45349;48.692;8.186;2023-03-01T06:20:23;33.30;;;15.83;;
59530;SDS011;45349;48.692;8.186;2023-03-01T06:22:52;33.27;;;16.80;;
59530;SDS011;45349;48.692;8.186;2023-03-01T06:25:20;33.37;;;17.17;;
59530;SDS011;45349;48.692;8.186;2023-03-01T06:27:48;33.13;;;16.43;;
59530;SDS011;45349;48.692;8.186;2023-03-01T06:30:15;28.20;;;14.40;;
59530;SDS011;45349;48.692;8.186;2023-03-01T06:32:44;35.73;;;16.17;;
59530;SDS011;45349;48.692;8.186;2023-03-01T06:35:11;33.43;;;16.13;;
59530;SDS011;45349;48.692;8.186;2023-03-01T06:37:39;31.60;;;15.80;;
59530;SDS011;45349;48.692;8.186;2023-03-01T06:40:09;33.40;;;17.00;;
59530;SDS011;45349;48.692;8.186;2023-03-01T06:42:39;34.77;;;15.90;;
59530;SDS011;45349;48.692;8.186;2023-03-01T06:45:08;34.73;;;17.43;;
59530;SDS011;45349;48.692;8.186;2023-03-01T06:47:36;32.87;;;17.33;;
59530;SDS011;45349;48.692;8.186;2023-03-01T06:50:03;34.00;;;15.70;;
59530;SDS011;45349;48.692;8.186;2023-03-01T06:52:30;34.73;;;15.77;;
59530;SDS011;45349;48.692;8.186;2023-03-01T06:54:57;46.70;;;22.53;;
59530;SDS011;45349;48.692;8.186;2023-03-01T06:57:25;64.13;;;30.53;;
59530;SDS011;45349;48.692;8.186;2023-03-01T06:59:51;45.63;;;22.77;;
59530;SDS011;45349;48.692;8.186;2023-03-01T07:02:18;43.67;;;23.88;;
59530;SDS011;45349;48.692;8.186;2023-03-01T07:04:45;35.07;;;17.63;;
59530;SDS011;45349;48.692;8.186;2023-03-01T07:07:12;34.67;;;17.53;;
59530;SDS011;45349;48.692;8.186;2023-03-01T07:09:38;34.10;;;17.53;;
59530;SDS011;45349;48.692;8.186;2023-03-01T07:12:05;29.73;;;15.90;;
59530;SDS011;45349;48.692;8.186;2023-03-01T07:14:34;34.07;;;17.10;;
59530;SDS011;45349;48.692;8.186;2023-03-01T07:17:00;37.57;;;18.60;;
59530;SDS011;45349;48.692;8.186;2023-03-01T07:19:27;33.67;;;16.00;;
59530;SDS011;45349;48.692;8.186;2023-03-01T07:21:54;31.83;;;16.13;;
59530;SDS011;45349;48.692;8.186;2023-03-01T07:24:21;31.77;;;16.07;;
59530;SDS011;45349;48.692;8.186;2023-03-01T07:26:48;36.57;;;17.97;;
59530;SDS011;45349;48.692;8.186;2023-03-01T07:29:15;34.40;;;17.80;;
59530;SDS011;45349;48.692;8.186;2023-03-01T07:31:43;36.20;;;18.67;;
59530;SDS011;45349;48.692;8.186;2023-03-01T07:34:10;38.23;;;17.03;;
59530;SDS011;45349;48.692;8.186;2023-03-01T07:36:36;33.17;;;17.20;;
59530;SDS011;45349;48.692;8.186;2023-03-01T07:39:04;37.13;;;18.20;;
59530;SDS011;45349;48.692;8.186;2023-03-01T07:41:31;32.23;;;17.40;;
59530;SDS011;45349;48.692;8.186;2023-03-01T07:43:57;34.87;;;18.00;;
59530;SDS011;45349;48.692;8.186;2023-03-01T07:46:24;33.40;;;17.90;;
59530;SDS011;45349;48.692;8.186;2023-03-01T07:48:52;30.57;;;16.90;;
59530;SDS011;45349;48.692;8.186;2023-03-01T07:51:18;37.20;;;18.97;;
59530;SDS011;45349;48.692;8.186;2023-03-01T07:53:45;39.47;;;19.60;;
59530;SDS011;45349;48.692;8.186;2023-03-01T07:56:13;34.37;;;18.63;;
59530;SDS011;45349;48.692;8.186;2023-03-01T07:58:42;32.40;;;16.60;;
59530;SDS011;45349;48.692;8.186;2023-03-01T08:01:10;30.27;;;16.83;;
59530;SDS011;45349;48.692;8.186;2023-03-01T08:03:39;27.53;;;14.27;;
59530;SDS011;45349;48.692;8.186;2023-03-01T08:06:08;28.80;;;16.50;;
59530;SDS011;45349;48.692;8.186;2023-03-01T08:08:36;34.43;;;19.63;;
59530;SDS011;45349;48.692;8.186;2023-03-01T08:11:03;32.87;;;16.23;;
59530;SDS011;45349;48.692;8.186;2023-03-01T08:13:31;24.10;;;12.67;;
59530;SDS011;45349;48.692;8.186;2023-03-01T08:16:00;25.60;;;13.50;;
59530;SDS011;45349;48.692;8.186;2023-03-01T08:18:28;24.77;;;14.30;;
59530;SDS011;45349;48.692;8.186;2023-03-01T08:20:54;37.83;;;19.53;;
59530;SDS011;45349;48.692;8.186;2023-03-01T08:23:23;30.23;;;15.30;;
59530;SDS011;45349;48.692;8.186;2023-03-01T08:25:50;25.87;;;13.57;;
59530;SDS011;45349;48.692;8.186;2023-03-01T08:28:20;28.13;;;15.30;;
59530;SDS011;45349;48.692;8.186;2023-03-01T08:30:46;26.00;;;13.57;;
59530;SDS011;45349;48.692;8.186;2023-03-01T08:33:13;24.57;;;13.07;;
59530;SDS011;45349;48.692;8.186;2023-03-01T08:35:39;27.83;;;13.87;;
59530;SDS011;45349;48.692;8.186;2023-03-01T08:38:06;29.53;;;14.10;;
59530;SDS011;45349;48.692;8.186;2023-03-01T08:40:34;26.93;;;14.37;;
59530;SDS011;45349;48.692;8.186;2023-03-01T08:43:00;26.47;;;13.40;;
59530;SDS011;45349;48.692;8.186;2023-03-01T08:45:27;24.70;;;14.70;;
59530;SDS011;45349;48.692;8.186;2023-03-01T08:47:54;27.30;;;14.33;;
59530;SDS011;45349;48.692;8.186;2023-03-01T08:50:20;24.13;;;14.33;;
59530;SDS011;45349;48.692;8.186;2023-03-01T08:52:49;28.20;;;16.13;;
59530;SDS011;45349;48.692;8.186;2023-03-01T08:55:16;27.97;;;14.77;;
59530;SDS011;45349;48.692;8.186;2023-03-01T08:57:44;24.63;;;14.37;;
59530;SDS011;45349;48.692;8.186;2023-03-01T09:00:11;21.97;;;12.77;;
59530;SDS011;45349;48.692;8.186;2023-03-01T09:02:39;27.13;;;14.90;;
59530;SDS011;45349;48.692;8.186;2023-03-01T09:05:06;26.23;;;13.10;;
59530;SDS011;45349;48.692;8.186;2023-03-01T09:07:33;28.87;;;14.97;;
59530;SDS011;45349;48.692;8.186;2023-03-01T09:10:00;16.67;;;9.50;;
59530;SDS011;45349;48.692;8.186;2023-03-01T09:12:27;26.77;;;13.97;;
59530;SDS011;45349;48.692;8.186;2023-03-01T09:14:54;29.80;;;15.03;;
59530;SDS011;45349;48.692;8.186;2023-03-01T09:17:21;26.87;;;13.80;;
59530;SDS011;45349;48.692;8.186;2023-03-01T09:19:48;25.87;;;14.03;;
59530;SDS011;45349;48.692;8.186;2023-03-01T09:22:14;27.83;;;14.87;;
59530;SDS011;45349;48.692;8.186;2023-03-01T09:24:41;29.80;;;16.47;;
59530;SDS011;45349;48.692;8.186;2023-03-01T09:27:07;35.53;;;19.30;;
59530;SDS011;45349;48.692;8.186;2023-03-01T09:29:35;31.77;;;16.77;;
59530;SDS011;45349;48.692;8.186;2023-03-01T09:32:04;31.93;;;16.73;;
59530;SDS011;45349;48.692;8.186;2023-03-01T09:34:31;31.30;;;17.40;;
59530;SDS011;45349;48.692;8.186;2023-03-01T09:37:18;23.67;;;13.07;;
59530;SDS011;45349;48.692;8.186;2023-03-01T09:39:44;33.97;;;17.37;;
59530;SDS011;45349;48.692;8.186;2023-03-01T09:42:11;19.90;;;10.27;;
59530;SDS011;45349;48.692;8.186;2023-03-01T09:44:40;26.63;;;13.37;;
59530;SDS011;45349;48.692;8.186;2023-03-01T09:47:17;34.33;;;17.73;;
59530;SDS011;45349;48.692;8.186;2023-03-01T09:49:45;35.80;;;18.30;;
59530;SDS011;45349;48.692;8.186;2023-03-01T09:52:21;33.33;;;17.47;;
59530;SDS011;45349;48.692;8.186;2023-03-01T09:54:55;34.70;;;18.50;;
59530;SDS011;45349;48.692;8.186;2023-03-01T09:57:26;37.60;;;18.80;;
59530;SDS011;45349;48.692;8.186;2023-03-01T09:59:59;40.20;;;19.70;;
59530;SDS011;45349;48.692;8.186;2023-03-01T10:02:38;36.10;;;18.47;;
59530;SDS011;45349;48.692;8.186;2023-03-01T10:05:19;26.30;;;13.53;;
59530;SDS011;45349;48.692;8.186;2023-03-01T10:07:55;35.07;;;17.33;;
59530;SDS011;45349;48.692;8.186;2023-03-01T10:10:33;31.10;;;16.67;;
59530;SDS011;45349;48.692;8.186;2023-03-01T10:13:01;40.53;;;20.90;;
59530;SDS011;45349;48.692;8.186;2023-03-01T10:15:34;34.80;;;18.50;;
59530;SDS011;45349;48.692;8.186;2023-03-01T10:18:10;37.97;;;19.83;;
59530;SDS011;45349;48.692;8.186;2023-03-01T10:20:42;40.70;;;21.60;;
59530;SDS011;45349;48.692;8.186;2023-03-01T10:23:16;41.00;;;20.07;;
59530;SDS011;45349;48.692;8.186;2023-03-01T10:25:45;42.00;;;20.13;;
59530;SDS011;45349;48.692;8.186;2023-03-01T10:28:24;37.60;;;18.93;;
59530;SDS011;45349;48.692;8.186;2023-03-01T10:30:55;37.40;;;20.37;;
59530;SDS011;45349;48.692;8.186;2023-03-01T10:33:26;36.57;;;19.17;;
59530;SDS011;45349;48.692;8.186;2023-03-01T10:35:55;35.43;;;20.33;;
59530;SDS011;45349;48.692;8.186;2023-03-01T10:38:22;38.83;;;20.17;;
59530;SDS011;45349;48.692;8.186;2023-03-01T10:40:50;38.73;;;19.87;;
59530;SDS011;45349;48.692;8.186;2023-03-01T10:43:21;35.47;;;19.80;;
59530;SDS011;45349;48.692;8.186;2023-03-01T10:45:48;37.40;;;20.67;;
59530;SDS011;45349;48.692;8.186;2023-03-01T10:48:16;40.10;;;19.87;;
59530;SDS011;45349;48.692;8.186;2023-03-01T10:50:46;37.30;;;20.53;;
59530;SDS011;45349;48.692;8.186;2023-03-01T10:53:21;38.77;;;19.87;;
59530;SDS011;45349;48.692;8.186;2023-03-01T10:55:59;41.67;;;19.83;;
59530;SDS011;45349;48.692;8.186;2023-03-01T10:58:29;28.33;;;14.43;;
59530;SDS011;45349;48.692;8.186;2023-03-01T11:00:57;38.80;;;19.63;;
59530;SDS011;45349;48.692;8.186;2023-03-01T11:03:26;41.00;;;21.13;;
59530;SDS011;45349;48.692;8.186;2023-03-01T11:05:57;37.70;;;19.47;;
59530;SDS011;45349;48.692;8.186;2023-03-01T11:08:40;39.13;;;21.10;;
59530;SDS011;45349;48.692;8.186;2023-03-01T11:11:24;40.03;;;22.83;;
59530;SDS011;45349;48.692;8.186;2023-03-01T11:13:57;37.93;;;20.27;;
59530;SDS011;45349;48.692;8.186;2023-03-01T11:16:29;37.00;;;19.63;;
59530;SDS011;45349;48.692;8.186;2023-03-01T11:18:59;38.47;;;20.23;;
59530;SDS011;45349;48.692;8.186;2023-03-01T11:21:32;36.27;;;20.80;;
59530;SDS011;45349;48.692;8.186;2023-03-01T11:24:01;40.97;;;19.73;;
59530;SDS011;45349;48.692;8.186;2023-03-01T11:26:29;32.30;;;19.43;;
59530;SDS011;45349;48.692;8.186;2023-03-01T11:29:00;37.50;;;19.73;;
59530;SDS011;45349;48.692;8.186;2023-03-01T11:31:32;39.20;;;20.27;;
59530;SDS011;45349;48.692;8.186;2023-03-01T11:34:02;35.53;;;18.53;;
59530;SDS011;45349;48.692;8.186;2023-03-01T11:36:39;33.30;;;18.10;;
59530;SDS011;45349;48.692;8.186;2023-03-01T11:39:17;31.97;;;18.23;;
59530;SDS011;45349;48.692;8.186;2023-03-01T11:41:52;34.90;;;18.47;;
59530;SDS011;45349;48.692;8.186;2023-03-01T11:44:28;20.53;;;10.90;;
59530;SDS011;45349;48.692;8.186;2023-03-01T11:47:04;32.00;;;17.67;;
59530;SDS011;45349;48.692;8.186;2023-03-01T11:52:39;32.00;;;17.63;;
59530;SDS011;45349;48.692;8.186;2023-03-01T11:55:17;31.10;;;17.63;;
59530;SDS011;45349;48.692;8.186;2023-03-01T11:57:59;34.47;;;18.37;;
59530;SDS011;45349;48.692;8.186;2023-03-01T12:00:56;41.10;;;18.13;;
59530;SDS011;45349;48.692;8.186;2023-03-01T12:09:26;66.80;;;28.07;;
59530;SDS011;45349;48.692;8.186;2023-03-01T12:12:07;44.03;;;21.07;;
59530;SDS011;45349;48.692;8.186;2023-03-01T12:14:51;65.93;;;29.13;;
59530;SDS011;45349;48.692;8.186;2023-03-01T12:17:29;43.23;;;22.10;;
59530;SDS011;45349;48.692;8.186;2023-03-01T12:20:11;43.50;;;22.20;;
59530;SDS011;45349;48.692;8.186;2023-03-01T12:22:46;29.97;;;17.67;;
59530;SDS011;45349;48.692;8.186;2023-03-01T12:25:42;31.90;;;17.97;;
59530;SDS011;45349;48.692;8.186;2023-03-01T12:28:17;31.90;;;17.97;;
59530;SDS011;45349;48.692;8.186;2023-03-01T12:30:57;39.37;;;20.83;;
59530;SDS011;45349;48.692;8.186;2023-03-01T12:33:36;33.90;;;20.00;;
59530;SDS011;45349;48.692;8.186;2023-03-01T12:36:24;46.93;;;24.27;;
59530;SDS011;45349;48.692;8.186;2023-03-01T12:39:06;29.33;;;16.43;;
59530;SDS011;45349;48.692;8.186;2023-03-01T12:41:50;36.17;;;19.30;;
59530;SDS011;45349;48.692;8.186;2023-03-01T12:44:35;30.27;;;14.27;;
59530;SDS011;45349;48.692;8.186;2023-03-01T12:47:20;35.00;;;19.50;;
59530;SDS011;45349;48.692;8.186;2023-03-01T12:49:59;29.60;;;17.67;;
59530;SDS011;45349;48.692;8.186;2023-03-01T12:52:31;34.23;;;19.13;;
59530;SDS011;45349;48.692;8.186;2023-03-01T12:55:06;30.23;;;17.67;;
59530;SDS011;45349;48.692;8.186;2023-03-01T12:57:44;35.87;;;19.53;;
59530;SDS011;45349;48.692;8.186;2023-03-01T13:00:22;33.57;;;18.93;;
59530;SDS011;45349;48.692;8.186;2023-03-01T13:02:55;38.57;;;17.40;;
59530;SDS011;45349;48.692;8.186;2023-03-01T13:05:34;25.00;;;13.83;;
59530;SDS011;45349;48.692;8.186;2023-03-01T13:08:08;39.00;;;19.33;;
59530;SDS011;45349;48.692;8.186;2023-03-01T13:10:43;29.80;;;16.67;;
59530;SDS011;45349;48.692;8.186;2023-03-01T13:13:19;39.63;;;17.07;;
59530;SDS011;45349;48.692;8.186;2023-03-01T13:15:47;26.17;;;13.83;;
59530;SDS011;45349;48.692;8.186;2023-03-01T13:18:31;32.73;;;18.20;;
59530;SDS011;45349;48.692;8.186;2023-03-01T13:20:59;46.13;;;19.40;;
59530;SDS011;45349;48.692;8.186;2023-03-01T13:23:29;30.23;;;17.57;;
59530;SDS011;45349;48.692;8.186;2023-03-01T13:26:02;26.00;;;14.70;;
59530;SDS011;45349;48.692;8.186;2023-03-01T13:28:54;45.63;;;17.60;;
59530;SDS011;45349;48.692;8.186;2023-03-01T13:34:48;31.73;;;18.10;;
59530;SDS011;45349;48.692;8.186;2023-03-01T13:37:26;29.57;;;15.70;;
59530;SDS011;45349;48.692;8.186;2023-03-01T13:39:59;34.67;;;18.03;;
59530;SDS011;45349;48.692;8.186;2023-03-01T13:42:31;31.25;;;20.42;;
59530;SDS011;45349;48.692;8.186;2023-03-01T13:45:03;33.87;;;18.93;;
59530;SDS011;45349;48.692;8.186;2023-03-01T13:47:40;30.50;;;16.80;;
59530;SDS011;45349;48.692;8.186;2023-03-01T13:50:15;23.53;;;11.83;;
59530;SDS011;45349;48.692;8.186;2023-03-01T13:52:45;36.80;;;18.63;;
59530;SDS011;45349;48.692;8.186;2023-03-01T13:55:17;32.73;;;18.40;;
59530;SDS011;45349;48.692;8.186;2023-03-01T13:57:48;33.87;;;18.67;;
59530;SDS011;45349;48.692;8.186;2023-03-01T14:00:30;30.67;;;17.30;;
59530;SDS011;45349;48.692;8.186;2023-03-01T14:03:08;31.57;;;17.90;;
59530;SDS011;45349;48.692;8.186;2023-03-01T14:05:38;30.43;;;17.80;;
59530;SDS011;45349;48.692;8.186;2023-03-01T14:08:17;34.57;;;18.13;;
59530;SDS011;45349;48.692;8.186;2023-03-01T14:10:50;29.10;;;18.13;;
59530;SDS011;45349;48.692;8.186;2023-03-01T14:13:29;36.23;;;16.40;;
59530;SDS011;45349;48.692;8.186;2023-03-01T14:16:11;28.77;;;15.07;;
59530;SDS011;45349;48.692;8.186;2023-03-01T14:18:51;31.87;;;15.63;;
59530;SDS011;45349;48.692;8.186;2023-03-01T14:21:26;33.40;;;17.93;;
59530;SDS011;45349;48.692;8.186;2023-03-01T14:23:52;27.00;;;14.33;;
59530;SDS011;45349;48.692;8.186;2023-03-01T14:26:20;37.40;;;18.27;;
59530;SDS011;45349;48.692;8.186;2023-03-01T14:28:48;34.97;;;18.73;;
59530;SDS011;45349;48.692;8.186;2023-03-01T14:31:31;34.37;;;19.17;;
59530;SDS011;45349;48.692;8.186;2023-03-01T14:34:00;19.10;;;9.20;;
59530;SDS011;45349;48.692;8.186;2023-03-01T14:36:28;34.13;;;18.10;;
59530;SDS011;45349;48.692;8.186;2023-03-01T14:38:56;32.70;;;18.30;;
59530;SDS011;45349;48.692;8.186;2023-03-01T14:41:29;31.33;;;17.73;;
59530;SDS011;45349;48.692;8.186;2023-03-01T14:43:59;30.97;;;17.83;;
59530;SDS011;45349;48.692;8.186;2023-03-01T14:46:28;23.80;;;11.10;;
59530;SDS011;45349;48.692;8.186;2023-03-01T14:49:01;35.53;;;18.17;;
59530;SDS011;45349;48.692;8.186;2023-03-01T14:51:29;35.93;;;18.50;;